Portada
METAR-TAF:

METAR-TAF

Aeropuertos :

Curazao, Antillas Neerlandesas

Aeropuerto Internacional Hato

latitud: 12-12N, longitud: 068-58W, altitud: 9 m

Observación

El informe se hizo hace 56 minutos, a las 05:00 UTC
Viento 7 kt del este, variando entre este-noreste y sureste
Temperatura 28°C
Humedad 84%
Presión 1012 hPa
Visibilidad 10 km o más
Escasas nubes a una altura de 1600 ft

METAR: TNCC 170500Z 10007KT 070V130 9999 FEW016 28/25 Q1012 NOSIG

Hora: 01:56 (05:56 UTC)

Pronóstico

El informe se hizo hace 1 hora y 56 minutos, a las 04:00 UTC
Pronóstico válido del 17 a las 06 UTC al 18 a las 06 UTC
Viento 10 kt del este
Visibilidad 10 km o más
Nubes dispersas a una altura de 1800 ft
Probabilidad 30% :
Temporalmente
del 17 a las 08 UTC al 17 a las 18 UTC
Visibilidad: 7000 m
Cielo nuboso a una altura de 1500 ft
chaparrones de lluvia

TAF: TNCC 170400Z 1706/1806 09010KT 9999 SCT018 PROB30 TEMPO 1708/1718 7000 SHRA BKN015

Observaciones y pronósticos meteorológicos de más de 4000 aeropuertos (mensajes METAR y TAF).

Los puntos amarillos y rojos representan las estaciones disponibles.

Ponga el ratón en el punto deseado para ver el nombre de la estación.

Haga clic para ver las observaciones y los pronósticos meteorológicos.

Para cambiar el mapa : haga clic en los botones verdes con una cruz de color negro para hacer un zoom, en el botón verde con un guión para alejar o en las flechas verdes para mapas adyacentes.


METAR-TAF: